Strona główna
METAR-TAF:

METAR-TAF

Lotnisko :

Port lotniczy Teheran-Mehrabad

Teheran, Iran

Szerokość geograficzna: 35-41N, Długość geograficzna: 051-21E, wysokość: 1204 m

Aktualna obserwacja pogody

Raport powstał 26 minut temu, godzina 05:30 UTC
Wiatr 8 kt od zachodnio-południowy zachód
Temperatura 34°C
Wilgotność 13%
Ciśnienie 1016 hPa
Widzialność 10 km lub więcej
Brak chmur poniżej 1500 m i brak chmur cumulonimbus

METAR: OIII 200530Z 24008KT CAVOK 34/02 Q1015 A3000

czas: 10:26 (05:56 UTC)

Prognoza

Raport powstał 26 minut temu, godzina 05:30 UTC
Prognoza ważna od 20 godzina 06 UTC do 21 godzina 12 UTC
Wiatr 8 kt od zachodnio-północny zachód
Widzialność: 8000 m
Przejściowo
od 20 godzina 08 UTC do 20 godzina 12 UTC
Wiatr 12 kt od południowo-południowy wschód
Przejściowo
od 21 godzina 08 UTC do 21 godzina 12 UTC
Wiatr 12 kt od południowy wschód
Mało chmury na wysokości 4000 ft

TAF: OIII 200530Z 2006/2112 30008KT 8000 NSC TEMPO 2008/2012 16012KT TEMPO 2108/2112 14012KT FEW040

Obserwacja i prognoza pogody dla ponad 4000 lotnisk (raport METAR i TAF).

Dostępne stacje oznaczono żółtymi i czerwonymi punktami na mapie.

Najedź kursorem aby zobaczyć nazwę stacji.

Kliknij aby zobaczyć obserwacje i prognozy pogody.

Aby zmienić mapę: kliknij na zielony przycisk z czarnym krzyżykiem, aby powiększyć; na zielony przycisk z myślnikiem, aby pomniejszyć; na zielone strzałki, aby przejść do map sąsiednich.


METAR-TAF: